• Join FlightAware (Why Join?)
  • Login
  • US Flag GB Flag 
02:00 EST


 

Airport Tracker/Info


-or-


 

Live Flight TrackerFlight Track Log ✈ LAK145 ✈ 29-Mar-2014 ✈ KRDU - KHTS

Flight Track Log - Related Links

Times and Time Zones

All times are in EDT time to prevent confusion due to time zone crossing. See the LAK145 flight status page for this flight to view local times or setup timezone preferences in your user account.

Time Position Orientation Groundspeed Altitude Reporting Facility
EDT Latitude Longitude Course Direction KTS MPH feet Rate Location/Type
10:03 35.8236 -78.8556 240° Southwest 213 245 4,300  Level Washington Center
10:03 35.8058 -78.8933 230° Southwest 211 243 6,000 2,820 Climbing Washington Center
10:04 35.8072 -78.9958 271° West 280 322 9,600 2,580 Climbing Washington Center
10:05 35.8064 -79.0931 269° West 268 308 11,900 1,140 Climbing Washington Center
10:06 35.8117 -79.1983 274° West 284 327 11,900 1,200 Level Washington Center
10:07 35.8128 -79.3008 271° West 297 342 14,300 2,220 Climbing Washington Center
10:08 35.8114 -79.4058 269° West 311 358 16,400 2,160 Climbing Washington Center
10:09 35.8122 -79.5133 271° West 311 358 18,700 1,500 Climbing Washington Center
10:11 35.7886 -79.7253 262° West 317 365 21,000 1,080 Climbing Atlanta Center
10:12 35.7694 -79.8389 258° West 347 399 22,000 1,320 Climbing Atlanta Center
10:13 35.7483 -79.9500 257° West 354 407 23,700 1,080 Climbing Atlanta Center
10:14 35.7561 -80.0672 275° West 354 407 24,200 1,200 Climbing Atlanta Center
10:15 35.8361 -80.1503 320° Northwest 324 373 26,100 1,860 Climbing Atlanta Center
10:16 35.9242 -80.2308 323° Northwest 339 390 28,000 900 Climbing Atlanta Center
10:17 36.0056 -80.3039 324° Northwest 344 396 28,000  Level Atlanta Center
10:18 36.0936 -80.3872 323° Northwest 376 433 28,000  Level Atlanta Center
10:19 36.1881 -80.4758 323° Northwest 401 461 28,000  Level Atlanta Center
10:20 36.2822 -80.5617 324° Northwest 415 478 28,000  Level Atlanta Center
10:21 36.3828 -80.6528 324° Northwest 433 498 28,000  Level Atlanta Center
10:22 36.4769 -80.7417 323° Northwest 433 498 28,000  Level Atlanta Center
10:23 36.5667 -80.8233 324° Northwest 439 505 28,000  Level Atlanta Center
10:25 36.7144 -80.9622 323° Northwest 434 499 28,000  Level Indianapolis Center
10:26 36.8097 -81.0514 323° Northwest 435 501 28,000  Level Indianapolis Center
10:27 36.9047 -81.1394 323° Northwest 435 501 28,000  Level Indianapolis Center
10:28 37.0181 -81.2494 322° Northwest 436 502 28,000  Level Indianapolis Center
10:29 37.1119 -81.3367 323° Northwest 436 502 28,000  Level Indianapolis Center
10:30 37.2083 -81.4297 322° Northwest 437 503 28,000 -600 Level Indianapolis Center
10:31 37.3053 -81.5197 324° Northwest 437 503 26,800 -1,800 Descending Indianapolis Center
10:32 37.4142 -81.6244 323° Northwest 429 494 24,400 -2,280 Descending Indianapolis Center
10:33 37.5047 -81.7114 323° Northwest 417 480 22,200 -2,040 Descending Indianapolis Center
10:34 37.5922 -81.7964 322° Northwest 404 465 20,300 -1,800 Descending Indianapolis Center
10:35 37.6756 -81.8800 322° Northwest 390 449 18,600 -1,680 Descending Indianapolis Center
10:36 37.7594 -81.9594 323° Northwest 383 441 17,000 -1,560 Descending Indianapolis Center
10:37 37.8397 -82.0406 321° Northwest 377 434 15,500 -1,500 Descending Indianapolis Center
10:38 37.9197 -82.1156 324° Northwest 374 430 14,000 -1,620 Descending Indianapolis Center
10:39 37.9969 -82.1956 321° Northwest 358 412 12,300 -1,740 Descending Indianapolis Center
10:40 38.0850 -82.2789 323° Northwest 345 397 10,500 -1,680 Descending Indianapolis Center
10:41 38.1589 -82.3531 322° Northwest 337 388 9,000 -1,560 Descending Indianapolis Center
10:42 38.2219 -82.4164 322° Northwest 304 350 7,400 -1,920 Descending Indianapolis Center
10:43 38.2794 -82.4744 322° Northwest 271 312 5,100 -2,160 Descending Indianapolis Center
10:44 38.3194 -82.5492 304° West 267 307 3,100 -1,380 Descending Indianapolis Center
10:45 38.3478 -82.6264 295° West 251 289 2,300 -600 Descending Indianapolis Center
10:46 38.3894 -82.6169 10° North 193 222 1,900 -420 Descending Indianapolis Center
10:48 38.3685 -82.5604 108° East  Level Estimated
10:55 38.3685 -82.5604 108° East  Level Estimated
10:56 38.3685 -82.5604 108° East  Level Estimated
10:57 38.3685 -82.5604 108° East  Level Estimated
10:58 38.3685 -82.5604 108° East  Level Estimated
10:59 38.3685 -82.5604 108° East  Level Estimated
11:00 38.3685 -82.5604 108° East  Level Estimated
11:01 38.3685 -82.5604 108° East  Level Estimated
11:02 38.3685 -82.5604 108° East  Level Estimated
11:03 38.3685 -82.5604 108° East  Level Estimated